createdAt,value
2023-03-27T00:01:24.701Z,100479.09
2023-03-27T00:03:53.541Z,100487.63
2023-03-27T00:06:21.945Z,100484.31
2023-03-27T00:08:51.159Z,100495.84
2023-03-27T00:11:19.572Z,100501.09
2023-03-27T00:13:50.649Z,100507.19
2023-03-27T00:16:23.714Z,100505.75
2023-03-27T00:18:50.566Z,100503.41
2023-03-27T00:21:17.292Z,100510.69
2023-03-27T00:23:44.254Z,100517.34
2023-03-27T00:26:12.209Z,100509.63
2023-03-27T00:28:39.186Z,100507.72
2023-03-27T00:31:10.824Z,100516.13
2023-03-27T00:33:37.674Z,100518.84
2023-03-27T00:36:04.576Z,100515.50
2023-03-27T00:38:31.444Z,100526.31
2023-03-27T00:40:58.393Z,100523.22
2023-03-27T00:43:34.620Z,100523.19
2023-03-27T00:46:28.004Z,100522.16
2023-03-27T00:48:56.190Z,100519.03
2023-03-27T00:51:25.094Z,100526.94
2023-03-27T00:53:52.864Z,100534.00
2023-03-27T00:56:20.079Z,100538.59
2023-03-27T00:58:51.337Z,100539.34
2023-03-27T01:01:21.792Z,100538.94
2023-03-27T01:03:50.183Z,100541.81
2023-03-27T01:06:17.487Z,100553.06
2023-03-27T01:08:45.450Z,100545.28
2023-03-27T01:11:20.181Z,100546.53
2023-03-27T01:14:10.977Z,100551.72
2023-03-27T01:16:45.646Z,100554.44
2023-03-27T01:19:30.527Z,100559.88
2023-03-27T01:22:00.033Z,100552.56
2023-03-27T01:24:35.624Z,100547.50
2023-03-27T01:27:16.304Z,100551.66
2023-03-27T01:30:09.027Z,100555.91
2023-03-27T01:32:47.830Z,100562.78
2023-03-27T01:35:39.328Z,100565.00
2023-03-27T01:38:37.813Z,100566.28
2023-03-27T01:41:24.572Z,100566.91
2023-03-27T01:44:14.890Z,100564.47
2023-03-27T01:46:56.392Z,100558.19
2023-03-27T01:49:34.306Z,100564.19
2023-03-27T01:52:05.123Z,100560.06
2023-03-27T01:54:39.197Z,100552.16
2023-03-27T01:57:16.087Z,100558.59
2023-03-27T01:59:49.007Z,100561.34
2023-03-27T02:02:25.459Z,100569.63
2023-03-27T02:05:08.910Z,100569.25
2023-03-27T02:07:41.863Z,100570.06
2023-03-27T02:10:15.456Z,100573.97
2023-03-27T02:12:51.361Z,100579.75
2023-03-27T02:15:25.575Z,100584.69
2023-03-27T02:18:05.016Z,100589.75
2023-03-27T02:20:39.795Z,100593.63
2023-03-27T02:23:07.797Z,100599.94
2023-03-27T02:25:37.128Z,100601.63
2023-03-27T02:28:22.871Z,100604.22
2023-03-27T02:31:33.180Z,100609.75
2023-03-27T02:34:10.609Z,100610.97
2023-03-27T02:37:02.435Z,100611.75
2023-03-27T02:39:55.204Z,100609.03
2023-03-27T02:42:50.265Z,100615.03
2023-03-27T02:45:28.272Z,100617.53
2023-03-27T02:48:18.903Z,100618.59
2023-03-27T02:50:54.389Z,100622.44
2023-03-27T02:53:24.520Z,100626.63
2023-03-27T02:55:55.900Z,100635.44
2023-03-27T02:58:32.341Z,100632.16
2023-03-27T03:01:00.672Z,100639.94
2023-03-27T03:03:38.982Z,100646.69
2023-03-27T03:06:07.091Z,100638.81
2023-03-27T03:08:38.356Z,100637.13
2023-03-27T03:11:09.059Z,100642.91
2023-03-27T03:13:36.354Z,100642.75
2023-03-27T03:16:03.274Z,100643.50
2023-03-27T03:18:30.300Z,100640.78
2023-03-27T03:20:57.069Z,100650.06
2023-03-27T03:23:24.380Z,100651.28
2023-03-27T03:25:52.754Z,100644.34
2023-03-27T03:28:19.675Z,100647.84
2023-03-27T03:30:50.591Z,100653.53
2023-03-27T03:33:19.523Z,100655.66
2023-03-27T03:35:50.795Z,100663.53
2023-03-27T03:38:28.093Z,100655.13
2023-03-27T03:40:56.667Z,100661.66
2023-03-27T03:43:25.862Z,100653.59
2023-03-27T03:45:53.954Z,100660.50
2023-03-27T03:48:22.149Z,100657.19
2023-03-27T03:50:49.794Z,100656.59
2023-03-27T03:53:19.090Z,100658.06
2023-03-27T03:55:46.760Z,100661.63
2023-03-27T03:58:13.559Z,100669.97
2023-03-27T04:00:40.623Z,100664.16
2023-03-27T04:03:09.442Z,100663.19
2023-03-27T04:05:37.853Z,100666.81
2023-03-27T04:08:08.230Z,100679.19
2023-03-27T04:10:38.361Z,100676.69
2023-03-27T04:13:06.412Z,100684.81
2023-03-27T04:15:33.740Z,100693.84
2023-03-27T04:18:01.053Z,100693.34
2023-03-27T04:20:28.213Z,100699.16
2023-03-27T04:22:54.970Z,100702.53
2023-03-27T04:25:23.650Z,100705.94
2023-03-27T04:27:51.381Z,100704.59
2023-03-27T04:30:23.060Z,100701.44
2023-03-27T04:32:50.970Z,100704.84
2023-03-27T04:35:18.423Z,100707.22
2023-03-27T04:37:46.509Z,100711.13
2023-03-27T04:40:15.545Z,100710.63
2023-03-27T04:42:43.986Z,100712.50
2023-03-27T04:45:17.344Z,100707.78
2023-03-27T04:47:44.455Z,100701.34
2023-03-27T04:50:11.778Z,100704.56
2023-03-27T04:52:38.820Z,100699.19
2023-03-27T04:55:06.605Z,100706.97
2023-03-27T04:57:34.177Z,100707.81
2023-03-27T05:00:02.302Z,100703.44
2023-03-27T05:02:30.689Z,100708.34
2023-03-27T05:04:58.404Z,100713.59
2023-03-27T05:07:26.634Z,100713.06
2023-03-27T05:09:53.385Z,100711.91
2023-03-27T05:12:21.589Z,100718.97
2023-03-27T05:14:48.666Z,100725.06
2023-03-27T05:17:18.321Z,100716.78
2023-03-27T05:19:45.297Z,100723.72
2023-03-27T05:22:13.843Z,100725.03
2023-03-27T05:24:40.449Z,100736.00
2023-03-27T05:27:07.107Z,100735.50
2023-03-27T05:29:47.351Z,100731.13
2023-03-27T05:32:14.676Z,100732.47
2023-03-27T05:34:42.389Z,100732.81
2023-03-27T05:37:09.419Z,100734.47
2023-03-27T05:39:36.925Z,100739.19
2023-03-27T05:42:04.252Z,100741.72
2023-03-27T05:44:31.130Z,100739.00
2023-03-27T05:47:01.330Z,100742.84
2023-03-27T05:49:28.072Z,100737.13
2023-03-27T05:51:54.714Z,100746.94
2023-03-27T05:54:21.388Z,100740.31
2023-03-27T05:56:47.990Z,100746.22
2023-03-27T05:59:14.776Z,100740.31
2023-03-27T06:01:41.396Z,100747.53
2023-03-27T06:04:09.536Z,100752.59
2023-03-27T06:06:36.350Z,100763.03
2023-03-27T06:09:03.836Z,100770.81
2023-03-27T06:11:30.878Z,100771.19
2023-03-27T06:13:58.676Z,100783.69
2023-03-27T06:16:25.895Z,100788.09
2023-03-27T06:18:53.139Z,100800.28
2023-03-27T06:21:20.928Z,100801.09
2023-03-27T06:23:47.899Z,100804.63
2023-03-27T06:26:15.720Z,100806.34
2023-03-27T06:28:42.625Z,100808.38
2023-03-27T06:31:09.427Z,100811.72
2023-03-27T06:33:36.151Z,100803.28
2023-03-27T06:36:02.942Z,100809.38
2023-03-27T06:38:33.031Z,100811.38
2023-03-27T06:41:00.749Z,100812.75
2023-03-27T06:43:27.550Z,100812.25
2023-03-27T06:45:54.656Z,100803.66
2023-03-27T06:48:22.650Z,100803.00
2023-03-27T06:50:51.767Z,100816.16
2023-03-27T06:53:27.423Z,100809.75
2023-03-27T06:55:55.698Z,100808.09
2023-03-27T06:58:22.574Z,100809.94
2023-03-27T07:00:50.438Z,100816.88
2023-03-27T07:03:19.007Z,100820.59
2023-03-27T07:05:45.817Z,100822.81
2023-03-27T07:08:23.461Z,100832.63
2023-03-27T07:11:07.968Z,100826.06
2023-03-27T07:13:37.446Z,100836.25
2023-03-27T07:16:04.713Z,100837.56
2023-03-27T07:18:31.454Z,100837.28
2023-03-27T07:20:58.379Z,100843.66
2023-03-27T07:23:25.434Z,100846.03
2023-03-27T07:25:56.880Z,100847.72
2023-03-27T07:28:23.697Z,100840.59
2023-03-27T07:30:50.393Z,100842.28
2023-03-27T07:33:17.171Z,100840.78
2023-03-27T07:35:47.539Z,100846.31
2023-03-27T07:38:16.086Z,100844.25
2023-03-27T07:40:50.521Z,100843.50
2023-03-27T07:43:23.154Z,100843.59
2023-03-27T07:45:49.947Z,100842.00
2023-03-27T07:48:16.952Z,100846.94
2023-03-27T07:50:45.049Z,100846.75
2023-03-27T07:53:32.591Z,100854.22
2023-03-27T07:55:59.447Z,100855.03
2023-03-27T07:58:26.381Z,100851.53
2023-03-27T08:00:53.354Z,100849.44
2023-03-27T08:03:21.117Z,100848.69
2023-03-27T08:05:56.199Z,100840.81
2023-03-27T08:08:23.787Z,100837.84
2023-03-27T08:10:51.714Z,100842.84
2023-03-27T08:13:18.493Z,100839.28
2023-03-27T08:15:45.342Z,100848.91
2023-03-27T08:18:12.215Z,100844.44
2023-03-27T08:20:39.314Z,100858.41
2023-03-27T08:23:06.612Z,100864.88
2023-03-27T08:25:33.420Z,100874.41
2023-03-27T08:28:01.938Z,100874.47
2023-03-27T08:30:29.144Z,100879.19
2023-03-27T08:32:56.920Z,100884.97
2023-03-27T08:35:23.712Z,100884.38
2023-03-27T08:37:50.422Z,100888.69
2023-03-27T08:40:21.666Z,100875.19
2023-03-27T08:42:52.452Z,100879.00
2023-03-27T08:45:42.975Z,100885.53
2023-03-27T08:48:19.206Z,100877.59
2023-03-27T08:50:51.925Z,100872.91
2023-03-27T08:53:37.252Z,100882.66
2023-03-27T08:56:04.358Z,100880.50
2023-03-27T08:58:33.080Z,100884.16
2023-03-27T09:01:11.828Z,100885.06
2023-03-27T09:03:57.562Z,100881.88
2023-03-27T09:06:38.340Z,100886.16
2023-03-27T09:09:07.817Z,100871.50
2023-03-27T09:11:49.577Z,100871.38
2023-03-27T09:14:46.389Z,100885.72
2023-03-27T09:17:22.176Z,100886.28
2023-03-27T09:20:00.424Z,100882.16
2023-03-27T09:22:40.816Z,100890.31
2023-03-27T09:25:20.210Z,100888.81
2023-03-27T09:27:48.808Z,100887.97
2023-03-27T09:30:21.018Z,100887.84
2023-03-27T09:32:51.611Z,100899.88
2023-03-27T09:35:20.821Z,100894.84
2023-03-27T09:38:02.748Z,100896.66
2023-03-27T09:40:53.260Z,100893.59
2023-03-27T09:43:24.826Z,100891.84
2023-03-27T09:45:54.945Z,100896.38
2023-03-27T09:48:38.397Z,100895.81
2023-03-27T09:51:05.900Z,100888.09
2023-03-27T09:53:32.749Z,100890.94
2023-03-27T09:56:05.493Z,100884.53
2023-03-27T09:58:44.474Z,100883.06
2023-03-27T10:01:27.818Z,100892.78
2023-03-27T10:03:57.416Z,100887.16
2023-03-27T10:06:37.863Z,100886.13
2023-03-27T10:09:22.853Z,100888.84
2023-03-27T10:11:51.770Z,100887.38
2023-03-27T10:14:21.409Z,100878.97
2023-03-27T10:16:48.419Z,100885.78
2023-03-27T10:19:29.657Z,100881.66
2023-03-27T10:22:00.578Z,100886.50
2023-03-27T10:24:44.407Z,100878.75
2023-03-27T10:27:18.985Z,100881.72
2023-03-27T10:29:45.822Z,100877.59
2023-03-27T10:32:12.542Z,100876.34
2023-03-27T10:34:54.394Z,100875.69
2023-03-27T10:37:34.370Z,100880.63
2023-03-27T10:40:03.587Z,100877.91
2023-03-27T10:42:32.572Z,100884.41
2023-03-27T10:45:00.577Z,100882.50
2023-03-27T10:47:32.428Z,100886.50
2023-03-27T10:50:17.751Z,100878.91
2023-03-27T10:52:52.384Z,100879.16
2023-03-27T10:55:41.512Z,100880.00
2023-03-27T10:58:39.046Z,100873.47
2023-03-27T11:01:40.650Z,100875.38
2023-03-27T11:04:19.735Z,100882.50
2023-03-27T11:06:50.796Z,100884.19
2023-03-27T11:09:27.933Z,100887.94
2023-03-27T11:12:04.401Z,100878.03
2023-03-27T11:14:48.356Z,100889.56
2023-03-27T11:17:21.326Z,100890.88
2023-03-27T11:19:54.685Z,100900.78
2023-03-27T11:22:48.413Z,100898.03
2023-03-27T11:25:28.564Z,100894.88
2023-03-27T11:28:05.760Z,100890.22
2023-03-27T11:30:50.995Z,100903.94
2023-03-27T11:33:29.408Z,100905.84
2023-03-27T11:36:37.970Z,100905.84
2023-03-27T11:39:23.186Z,100906.66
2023-03-27T11:42:02.556Z,100898.84
2023-03-27T11:44:32.221Z,100893.19
2023-03-27T11:47:34.034Z,100891.44
2023-03-27T11:50:25.115Z,100895.50
2023-03-27T11:53:12.270Z,100902.91
2023-03-27T11:56:02.970Z,100891.91
2023-03-27T11:58:43.858Z,100897.50
2023-03-27T12:01:17.315Z,100903.47
2023-03-27T12:04:33.945Z,100904.97
2023-03-27T12:07:36.642Z,100905.56
2023-03-27T12:10:12.020Z,100901.69
2023-03-27T12:12:47.857Z,100902.03
2023-03-27T12:15:40.014Z,100904.50
2023-03-27T12:18:15.978Z,100902.88
2023-03-27T12:21:05.909Z,100899.88
2023-03-27T12:23:38.798Z,100905.69
2023-03-27T12:26:40.977Z,100894.69
2023-03-27T12:29:52.609Z,100887.53
2023-03-27T12:32:25.032Z,100882.34
2023-03-27T12:34:59.815Z,100891.88
2023-03-27T12:37:31.204Z,100885.41
2023-03-27T12:39:59.872Z,100888.34
2023-03-27T12:42:51.850Z,100885.44
2023-03-27T12:45:23.585Z,100884.66
2023-03-27T12:48:10.055Z,100883.88
2023-03-27T12:50:52.747Z,100883.69
2023-03-27T12:53:39.586Z,100875.47
2023-03-27T12:56:16.485Z,100885.81
2023-03-27T12:58:43.850Z,100894.03
2023-03-27T13:01:12.012Z,100884.31
2023-03-27T13:03:41.750Z,100882.56
2023-03-27T13:06:27.362Z,100878.34
2023-03-27T13:09:25.987Z,100873.06
2023-03-27T13:12:04.662Z,100875.38
2023-03-27T13:14:37.805Z,100866.69
2023-03-27T13:17:33.715Z,100867.69
2023-03-27T13:20:27.435Z,100872.47
2023-03-27T13:23:15.775Z,100863.53
2023-03-27T13:26:10.561Z,100870.72
2023-03-27T13:28:40.434Z,100866.16
2023-03-27T13:31:11.313Z,100861.63
2023-03-27T13:33:42.677Z,100859.03
2023-03-27T13:36:14.541Z,100861.06
2023-03-27T13:38:53.433Z,100854.25
2023-03-27T13:41:44.916Z,100850.81
2023-03-27T13:44:14.427Z,100848.84
2023-03-27T13:46:57.318Z,100851.44
2023-03-27T13:49:51.891Z,100852.72
2023-03-27T13:52:32.049Z,100852.78
2023-03-27T13:55:19.694Z,100859.75
2023-03-27T13:58:07.423Z,100855.31
2023-03-27T14:01:17.313Z,100855.84
2023-03-27T14:04:11.933Z,100862.00
2023-03-27T14:07:12.584Z,100854.72
2023-03-27T14:10:08.515Z,100854.97
2023-03-27T14:12:46.928Z,100852.41
2023-03-27T14:15:32.289Z,100862.69
2023-03-27T14:18:25.700Z,100855.56
2023-03-27T14:20:58.413Z,100857.63
2023-03-27T14:23:29.852Z,100849.59
2023-03-27T14:26:05.869Z,100848.22
2023-03-27T14:28:55.757Z,100847.38
2023-03-27T14:31:24.177Z,100845.75
2023-03-27T14:34:13.336Z,100846.97
2023-03-27T14:36:52.079Z,100846.81
2023-03-27T14:39:26.078Z,100847.00
2023-03-27T14:42:01.510Z,100844.47
2023-03-27T14:44:32.187Z,100829.94
2023-03-27T14:47:11.997Z,100838.88
2023-03-27T14:49:45.640Z,100841.13
2023-03-27T14:52:25.120Z,100835.34
2023-03-27T14:54:55.783Z,100836.47
2023-03-27T14:57:25.862Z,100823.69
2023-03-27T14:59:53.510Z,100830.94
2023-03-27T15:02:31.860Z,100833.28
2023-03-27T15:05:14.753Z,100835.31
2023-03-27T15:07:43.147Z,100836.72
2023-03-27T15:10:17.643Z,100830.50
2023-03-27T15:12:48.124Z,100834.81
2023-03-27T15:15:43.977Z,100827.53
2023-03-27T15:18:16.874Z,100829.28
2023-03-27T15:20:44.194Z,100828.38
2023-03-27T15:23:24.072Z,100816.41
2023-03-27T15:25:56.241Z,100823.53
2023-03-27T15:28:31.267Z,100818.66
2023-03-27T15:31:00.967Z,100819.13
2023-03-27T15:33:36.978Z,100811.84
2023-03-27T15:36:11.293Z,100806.00
2023-03-27T15:38:39.690Z,100813.25
2023-03-27T15:41:09.108Z,100809.91
2023-03-27T15:43:35.942Z,100805.06
2023-03-27T15:46:14.204Z,100812.41
2023-03-27T15:48:45.560Z,100813.06
2023-03-27T15:51:28.775Z,100797.66
2023-03-27T15:53:58.515Z,100807.53
2023-03-27T15:56:34.115Z,100801.56
2023-03-27T15:59:04.737Z,100808.06
2023-03-27T16:01:38.245Z,100793.09
2023-03-27T16:04:16.721Z,100786.81
2023-03-27T16:06:47.271Z,100786.16
2023-03-27T16:09:35.912Z,100785.06
2023-03-27T16:12:03.289Z,100785.06
2023-03-27T16:14:41.728Z,100789.94
2023-03-27T16:17:19.120Z,100788.88
2023-03-27T16:19:57.007Z,100781.50
2023-03-27T16:22:25.220Z,100787.38
2023-03-27T16:24:52.862Z,100787.09
2023-03-27T16:27:23.063Z,100784.97
2023-03-27T16:29:51.694Z,100781.84
2023-03-27T16:32:20.249Z,100781.22
2023-03-27T16:34:53.323Z,100774.00
2023-03-27T16:37:22.942Z,100775.84
2023-03-27T16:39:50.016Z,100779.50
2023-03-27T16:42:19.275Z,100777.81
2023-03-27T16:44:46.185Z,100772.78
2023-03-27T16:47:14.272Z,100781.44
2023-03-27T16:49:41.268Z,100779.34
2023-03-27T16:52:08.160Z,100770.94
2023-03-27T16:54:34.905Z,100777.81
2023-03-27T16:57:01.888Z,100766.38
2023-03-27T16:59:28.675Z,100772.00
2023-03-27T17:01:55.916Z,100778.59
2023-03-27T17:04:22.941Z,100764.47
2023-03-27T17:06:49.619Z,100756.31
2023-03-27T17:09:16.410Z,100762.63
2023-03-27T17:11:43.106Z,100764.56
2023-03-27T17:14:10.551Z,100759.31
2023-03-27T17:16:37.253Z,100765.28
2023-03-27T17:19:04.471Z,100759.50
2023-03-27T17:21:31.165Z,100762.84
2023-03-27T17:23:58.318Z,100762.91
2023-03-27T17:26:31.246Z,100759.63
2023-03-27T17:28:59.796Z,100759.69
2023-03-27T17:31:30.209Z,100759.75
2023-03-27T17:33:59.786Z,100760.19
2023-03-27T17:36:41.197Z,100763.34
2023-03-27T17:39:11.210Z,100761.06
2023-03-27T17:41:40.182Z,100754.97
2023-03-27T17:44:08.956Z,100761.72
2023-03-27T17:46:39.082Z,100754.81
2023-03-27T17:49:08.551Z,100757.75
2023-03-27T17:51:37.121Z,100751.88
2023-03-27T17:54:04.639Z,100756.53
2023-03-27T17:56:31.336Z,100750.66
2023-03-27T17:58:57.956Z,100748.97
2023-03-27T18:01:24.918Z,100746.06
2023-03-27T18:03:51.865Z,100736.41
2023-03-27T18:06:19.183Z,100741.88
2023-03-27T18:08:46.716Z,100741.91
2023-03-27T18:11:15.587Z,100742.31
2023-03-27T18:13:42.766Z,100738.78
2023-03-27T18:16:10.845Z,100739.81
2023-03-27T18:18:39.216Z,100741.94
2023-03-27T18:21:06.834Z,100745.09
2023-03-27T18:23:35.087Z,100732.91
2023-03-27T18:26:08.939Z,100731.41
2023-03-27T18:28:35.870Z,100737.03
2023-03-27T18:31:11.230Z,100736.78
2023-03-27T18:33:38.082Z,100735.88
2023-03-27T18:36:12.052Z,100740.66
2023-03-27T18:38:40.579Z,100742.06
2023-03-27T18:41:07.744Z,100736.59
2023-03-27T18:43:35.247Z,100736.50
2023-03-27T18:46:04.456Z,100740.19
2023-03-27T18:48:31.512Z,100739.28
2023-03-27T18:51:01.513Z,100740.94
2023-03-27T18:53:29.047Z,100741.22
2023-03-27T18:55:58.780Z,100730.44
2023-03-27T18:58:27.584Z,100732.44
2023-03-27T19:00:55.740Z,100732.19
2023-03-27T19:03:25.501Z,100740.91
2023-03-27T19:05:52.781Z,100733.72
2023-03-27T19:08:21.344Z,100745.31
2023-03-27T19:10:48.710Z,100749.84
2023-03-27T19:13:16.031Z,100746.59
2023-03-27T19:15:43.190Z,100739.78
2023-03-27T19:18:10.020Z,100742.72
2023-03-27T19:20:36.715Z,100744.31
2023-03-27T19:23:03.701Z,100738.22
2023-03-27T19:25:33.553Z,100741.31
2023-03-27T19:28:01.406Z,100743.03
2023-03-27T19:30:29.097Z,100743.44
2023-03-27T19:32:58.096Z,100747.56
2023-03-27T19:35:25.823Z,100744.19
2023-03-27T19:37:52.530Z,100735.75
2023-03-27T19:40:19.179Z,100737.44
2023-03-27T19:42:45.840Z,100733.03
2023-03-27T19:45:12.595Z,100733.41
2023-03-27T19:47:39.350Z,100730.16
2023-03-27T19:50:07.408Z,100735.97
2023-03-27T19:52:34.306Z,100732.25
2023-03-27T19:55:01.236Z,100728.94
2023-03-27T19:57:29.785Z,100737.75
2023-03-27T19:59:59.190Z,100737.50
2023-03-27T20:02:28.653Z,100730.75
2023-03-27T20:04:57.543Z,100734.88
2023-03-27T20:07:27.525Z,100723.53
2023-03-27T20:09:56.180Z,100723.72
2023-03-27T20:12:25.807Z,100723.16
2023-03-27T20:15:09.891Z,100729.72
2023-03-27T20:17:40.044Z,100724.75
2023-03-27T20:20:13.103Z,100720.66
2023-03-27T20:22:54.251Z,100729.25
2023-03-27T20:25:23.741Z,100716.91
2023-03-27T20:27:50.400Z,100720.25
2023-03-27T20:30:17.125Z,100720.53
2023-03-27T20:32:43.906Z,100726.63
2023-03-27T20:35:22.819Z,100719.59
2023-03-27T20:37:56.360Z,100718.81
2023-03-27T20:40:24.739Z,100717.72
2023-03-27T20:43:03.851Z,100717.72
2023-03-27T20:45:31.183Z,100714.63
2023-03-27T20:48:03.815Z,100726.34
2023-03-27T20:50:31.677Z,100714.81
2023-03-27T20:52:58.408Z,100712.56
2023-03-27T20:55:33.677Z,100717.63
2023-03-27T20:58:06.627Z,100705.34
2023-03-27T21:00:33.607Z,100708.13
2023-03-27T21:03:00.433Z,100707.19
2023-03-27T21:05:27.748Z,100706.69
2023-03-27T21:07:54.393Z,100709.03
2023-03-27T21:10:21.351Z,100701.59
2023-03-27T21:12:48.703Z,100695.94
2023-03-27T21:15:15.560Z,100694.66
2023-03-27T21:17:42.413Z,100695.13
2023-03-27T21:20:10.378Z,100690.16
2023-03-27T21:22:37.004Z,100684.06
2023-03-27T21:25:03.790Z,100688.25
2023-03-27T21:27:31.106Z,100682.91
2023-03-27T21:29:57.894Z,100677.97
2023-03-27T21:32:24.729Z,100683.09
2023-03-27T21:34:51.395Z,100676.03
2023-03-27T21:37:18.006Z,100670.44
2023-03-27T21:39:44.640Z,100676.38
2023-03-27T21:42:11.879Z,100665.31
2023-03-27T21:44:38.505Z,100666.59
2023-03-27T21:47:05.221Z,100659.53
2023-03-27T21:49:31.881Z,100661.84
2023-03-27T21:51:58.497Z,100671.97
2023-03-27T21:54:25.273Z,100665.69
2023-03-27T21:56:51.906Z,100661.69
2023-03-27T21:59:18.529Z,100666.75
2023-03-27T22:01:45.250Z,100656.50
2023-03-27T22:04:11.934Z,100658.81
2023-03-27T22:06:38.559Z,100655.47
2023-03-27T22:09:05.242Z,100652.09
2023-03-27T22:11:31.856Z,100652.91
2023-03-27T22:13:59.307Z,100646.81
2023-03-27T22:16:26.114Z,100652.06
2023-03-27T22:18:52.736Z,100656.66
2023-03-27T22:21:25.839Z,100648.50
2023-03-27T22:23:54.034Z,100651.63
2023-03-27T22:26:26.259Z,100641.78
2023-03-27T22:28:52.875Z,100650.78
2023-03-27T22:31:21.331Z,100639.25
2023-03-27T22:33:48.961Z,100641.38
2023-03-27T22:36:15.792Z,100635.91
2023-03-27T22:38:43.246Z,100642.41
2023-03-27T22:41:12.732Z,100646.38
2023-03-27T22:43:39.633Z,100632.56
2023-03-27T22:46:14.393Z,100633.03
2023-03-27T22:48:41.403Z,100623.34
2023-03-27T22:51:09.758Z,100630.09
2023-03-27T22:53:37.429Z,100626.75
2023-03-27T22:56:04.797Z,100631.59
2023-03-27T22:58:32.262Z,100626.31
2023-03-27T23:00:59.636Z,100635.16
2023-03-27T23:03:28.080Z,100627.16
2023-03-27T23:05:55.362Z,100628.88
2023-03-27T23:08:24.316Z,100615.66
2023-03-27T23:10:56.308Z,100620.69
2023-03-27T23:13:23.857Z,100613.16
2023-03-27T23:15:51.907Z,100616.47
2023-03-27T23:18:23.755Z,100617.97
2023-03-27T23:20:59.865Z,100618.75
2023-03-27T23:23:27.918Z,100603.69
2023-03-27T23:25:55.632Z,100612.47
2023-03-27T23:28:22.329Z,100609.97
2023-03-27T23:30:53.248Z,100607.44
2023-03-27T23:33:19.918Z,100602.41
2023-03-27T23:35:47.090Z,100602.41
2023-03-27T23:38:13.776Z,100596.50
2023-03-27T23:40:40.549Z,100601.94
2023-03-27T23:43:07.181Z,100600.91
2023-03-27T23:45:33.868Z,100597.78
2023-03-27T23:48:00.531Z,100596.06
2023-03-27T23:50:27.530Z,100588.94
2023-03-27T23:52:54.150Z,100584.94
2023-03-27T23:55:20.785Z,100574.69
2023-03-27T23:57:47.372Z,100586.00
